Time;durP1;ratioP1;P1;durP2;ratioP2;P2;SDS_P1;SDS_P2;PMS_P1;PMS_P2;Temp;Humidity;BMP_temperature;BMP_pressure;BME280_temperature;BME280_humidity;BME280_pressure;Samples;Min_cycle;Max_cycle;Signal;HPM_P1;HPM_P2
2021/12/02 00:00:48;;;;;;;71.68;43.05;;;2.50;99.90;;;;;;5013495;28;20046;-86
2021/12/02 00:03:16;;;;;;;73.50;42.05;;;2.00;99.90;;;;;;5013241;28;20053;-83
2021/12/02 00:05:44;;;;;;;73.38;41.85;;;2.30;99.90;;;;;;5029886;28;20053;-86
2021/12/02 00:08:12;;;;;;;63.97;36.50;;;2.40;99.90;;;;;;5013259;28;20069;-82
2021/12/02 00:10:41;;;;;;;67.72;36.67;;;2.00;99.90;;;;;;5029800;28;20045;-86
2021/12/02 00:13:09;;;;;;;61.63;35.40;;;2.20;99.90;;;;;;4997584;28;20140;-82
2021/12/02 00:21:09;;;;;;;63.85;39.63;;;2.50;99.90;;;;;;5016007;28;20049;-88
2021/12/02 00:23:41;;;;;;;68.22;38.38;;;2.40;99.90;;;;;;5015433;28;20104;-86
2021/12/02 00:26:15;;;;;;;59.83;38.70;;;2.40;99.90;;;;;;4998318;28;20038;-82
2021/12/02 00:28:43;;;;;;;68.88;39.00;;;2.40;99.90;;;;;;4997294;28;20054;-81
2021/12/02 00:31:15;;;;;;;64.30;35.83;;;2.40;99.90;;;;;;5012651;28;20069;-79
2021/12/02 00:33:50;;;;;;;59.30;36.03;;;2.40;99.90;;;;;;5028440;28;20500;-80
2021/12/02 00:36:19;;;;;;;61.55;35.33;;;2.40;99.90;;;;;;4995939;28;20045;-81
2021/12/02 00:38:47;;;;;;;62.35;37.72;;;2.20;99.90;;;;;;5012137;28;20465;-80
2021/12/02 00:41:17;;;;;;;58.75;38.38;;;1.90;99.90;;;;;;5013380;28;20096;-81
2021/12/02 00:43:46;;;;;;;69.75;38.30;;;2.10;99.90;;;;;;5011785;28;20137;-82
2021/12/02 00:46:18;;;;;;;61.55;36.70;;;2.20;99.90;;;;;;5012831;28;20476;-84
2021/12/02 00:48:46;;;;;;;63.15;36.33;;;2.20;99.90;;;;;;5012877;28;20052;-85
2021/12/02 00:51:15;;;;;;;58.42;35.45;;;2.30;99.90;;;;;;4997336;28;20054;-87
2021/12/02 00:53:46;;;;;;;65.32;36.08;;;2.20;99.90;;;;;;4998000;28;20460;-85
2021/12/02 00:56:16;;;;;;;50.78;32.10;;;2.10;99.90;;;;;;4997331;28;20397;-87
2021/12/02 00:58:48;;;;;;;53.20;33.83;;;2.10;99.90;;;;;;5014567;28;20137;-82
2021/12/02 01:01:17;;;;;;;62.13;32.33;;;2.10;99.90;;;;;;5014257;28;20042;-85
2021/12/02 01:04:55;;;;;;;52.67;32.43;;;2.20;99.90;;;;;;5013155;28;20046;-89
2021/12/02 01:07:55;;;;;;;54.95;30.48;;;2.10;99.90;;;;;;4960692;28;20312;-85
2021/12/02 01:11:00;;;;;;;54.17;33.08;;;2.10;99.90;;;;;;4956655;28;20074;-84
2021/12/02 01:13:53;;;;;;;50.30;31.42;;;1.90;99.90;;;;;;4955984;28;20126;-89
2021/12/02 01:16:21;;;;;;;51.92;30.77;;;2.10;99.90;;;;;;5008714;28;20054;-84
2021/12/02 01:18:48;;;;;;;52.42;31.45;;;2.20;99.90;;;;;;5012248;28;20042;-82
2021/12/02 01:21:18;;;;;;;50.47;30.50;;;2.30;99.90;;;;;;5013476;28;20069;-88
2021/12/02 01:23:50;;;;;;;49.08;31.42;;;2.10;99.90;;;;;;5011929;28;20042;-84
2021/12/02 01:26:18;;;;;;;48.78;29.42;;;2.20;99.90;;;;;;4995911;28;20140;-84
2021/12/02 01:28:48;;;;;;;51.05;29.30;;;2.10;99.90;;;;;;5011403;28;20128;-82
2021/12/02 01:31:16;;;;;;;47.78;29.08;;;2.20;99.90;;;;;;5012722;28;20045;-80
2021/12/02 01:33:49;;;;;;;49.53;30.20;;;1.90;99.90;;;;;;4997021;28;20112;-88
2021/12/02 01:37:22;;;;;;;51.08;28.88;;;2.00;99.90;;;;;;5029751;28;20046;-82
2021/12/02 01:49:22;;;;;;;37.40;22.75;;;1.80;99.90;;;;;;5011919;28;20037;-83
2021/12/02 01:51:54;;;;;;;41.10;24.33;;;1.20;99.90;;;;;;5174304;23;20069;-85
2021/12/02 01:54:44;;;;;;;45.53;28.23;;;0.90;99.90;;;;;;4992996;28;20053;-87
2021/12/02 01:58:02;;;;;;;46.08;28.92;;;1.00;99.90;;;;;;4976932;28;20125;-84
2021/12/02 02:00:41;;;;;;;47.28;26.80;;;1.30;99.90;;;;;;4981624;28;20084;-86
2021/12/02 02:03:13;;;;;;;43.22;25.85;;;1.70;99.90;;;;;;4992282;28;20034;-85
2021/12/02 02:05:42;;;;;;;48.63;28.67;;;1.90;99.90;;;;;;4991689;28;20557;-82
2021/12/02 02:08:21;;;;;;;56.70;31.92;;;2.00;99.90;;;;;;4992446;28;20433;-82
2021/12/02 02:10:49;;;;;;;48.30;29.17;;;1.70;99.90;;;;;;4976447;28;20042;-83
2021/12/02 02:13:21;;;;;;;56.75;30.27;;;1.90;99.90;;;;;;4977705;28;20063;-83
2021/12/02 02:15:52;;;;;;;47.72;30.85;;;2.00;99.90;;;;;;4992293;28;20046;-84
2021/12/02 02:26:05;;;;;;;53.17;30.25;;;2.00;99.90;;;;;;4951740;29;20407;-84
2021/12/02 02:28:34;;;;;;;53.50;29.83;;;1.80;99.90;;;;;;4920136;29;20484;-85
2021/12/02 02:31:02;;;;;;;46.95;28.73;;;1.90;99.90;;;;;;4935664;29;20039;-83
2021/12/02 02:33:39;;;;;;;53.58;29.05;;;2.00;99.90;;;;;;4937232;29;20476;-86
2021/12/02 02:36:08;;;;;;;50.63;29.05;;;2.00;99.90;;;;;;4921587;29;20063;-83
2021/12/02 02:38:40;;;;;;;50.28;30.50;;;1.90;99.90;;;;;;4954628;29;20066;-88
2021/12/02 02:41:40;;;;;;;56.17;30.88;;;1.80;99.90;;;;;;4938795;29;20404;-89
2021/12/02 02:44:56;;;;;;;;;;;;;;;;;;;;;
2021/12/02 02:48:24;;;;;;;;;;;;;;;;;;;;;
2021/12/02 03:00:12;;;;;;;52.95;31.17;;;1.80;99.90;;;;;;4973729;28;20458;-85
2021/12/02 03:05:46;;;;;;;54.85;32.22;;;1.60;99.90;;;;;;4989560;28;20060;-88
2021/12/02 03:09:11;;;;;;;60.10;33.05;;;1.80;99.90;;;;;;4973345;28;20051;-87
2021/12/02 03:11:56;;;;;;;53.38;31.60;;;1.70;99.90;;;;;;4989254;28;20101;-87
2021/12/02 03:14:34;;;;;;;56.15;35.38;;;1.80;99.90;;;;;;4973017;28;20623;-87
2021/12/02 03:17:04;;;;;;;56.17;32.78;;;1.80;99.90;;;;;;4956428;28;20102;-85
2021/12/02 03:19:31;;;;;;;67.80;35.65;;;1.70;99.90;;;;;;4973426;28;20153;-85
2021/12/02 03:22:02;;;;;;;61.90;32.80;;;1.70;99.90;;;;;;4988608;28;20057;-87
2021/12/02 03:24:29;;;;;;;;;;;1.60;99.90;;;;;;4977452;28;20066;-85
2021/12/02 03:27:03;;;;;;;63.45;33.80;;;1.70;99.90;;;;;;4977434;28;19960;-84
2021/12/02 03:29:31;;;;;;;52.70;31.17;;;1.60;99.90;;;;;;4992579;28;20106;-86
2021/12/02 03:31:58;;;;;;;62.33;33.60;;;1.70;99.90;;;;;;4991551;28;20053;-84
2021/12/02 03:34:26;;;;;;;52.67;32.10;;;1.70;99.90;;;;;;4976341;28;20089;-84
2021/12/02 03:37:00;;;;;;;54.65;31.95;;;1.60;99.90;;;;;;4959652;28;20090;-86
2021/12/02 03:39:27;;;;;;;53.92;31.38;;;1.70;99.90;;;;;;4958836;28;20050;-84
2021/12/02 03:41:56;;;;;;;53.22;31.58;;;1.40;99.90;;;;;;4959182;28;20050;-83
2021/12/02 03:44:24;;;;;;;47.22;30.63;;;1.40;99.90;;;;;;4976124;28;20046;-82
2021/12/02 03:46:53;;;;;;;52.20;30.25;;;1.50;99.90;;;;;;4976212;28;20074;-87
2021/12/02 03:49:21;;;;;;;54.03;32.75;;;1.60;99.90;;;;;;4976406;28;20101;-84
2021/12/02 03:51:49;;;;;;;57.47;31.00;;;1.50;99.90;;;;;;4960018;28;20141;-85
2021/12/02 03:54:16;;;;;;;58.10;32.45;;;1.40;99.90;;;;;;4998665;28;20149;-92
2021/12/02 03:56:44;;;;;;;50.72;32.22;;;1.40;99.90;;;;;;5015486;28;20069;-83
2021/12/02 03:59:21;;;;;;;53.80;33.53;;;1.50;99.90;;;;;;4997284;28;20096;-87
2021/12/02 04:01:49;;;;;;;59.80;33.85;;;1.50;99.90;;;;;;4997511;28;20045;-83
2021/12/02 04:04:16;;;;;;;64.05;35.95;;;1.20;99.90;;;;;;5014928;28;20394;-83
2021/12/02 04:06:44;;;;;;;65.20;35.58;;;1.20;99.90;;;;;;4981551;28;20046;-83
2021/12/02 04:09:16;;;;;;;69.03;38.60;;;1.30;99.90;;;;;;4981411;28;20049;-83
2021/12/02 04:16:13;;;;;;;71.55;36.92;;;1.20;99.90;;;;;;5015059;28;20030;-85
2021/12/02 04:18:41;;;;;;;65.60;36.63;;;1.30;99.90;;;;;;5014618;28;20046;-87
2021/12/02 04:21:09;;;;;;;55.85;32.17;;;1.10;99.90;;;;;;5015449;28;20128;-85
2021/12/02 04:23:36;;;;;;;42.00;27.02;;;1.00;99.90;;;;;;4998537;28;20139;-83
2021/12/02 04:26:04;;;;;;;47.80;27.30;;;0.90;99.90;;;;;;5016332;28;20080;-90
2021/12/02 04:28:32;;;;;;;40.10;25.98;;;1.10;99.90;;;;;;4998195;28;20050;-88
2021/12/02 04:31:00;;;;;;;65.57;34.60;;;1.30;99.90;;;;;;5014216;28;20030;-82
2021/12/02 04:33:29;;;;;;;67.07;39.88;;;1.00;99.90;;;;;;4996887;28;20050;-80
2021/12/02 04:35:58;;;;;;;61.33;36.45;;;1.20;99.90;;;;;;4996573;28;20456;-85
2021/12/02 04:38:26;;;;;;;53.72;33.08;;;1.20;99.90;;;;;;5013453;28;20116;-82
2021/12/02 04:40:54;;;;;;;59.30;32.47;;;1.10;99.90;;;;;;5012534;28;20030;-81
2021/12/02 04:43:23;;;;;;;64.13;32.38;;;1.40;99.90;;;;;;5012193;28;20068;-80
2021/12/02 04:45:52;;;;;;;53.30;29.77;;;1.20;99.90;;;;;;5012533;28;20033;-83
2021/12/02 04:48:20;;;;;;;48.22;29.88;;;1.20;99.90;;;;;;5016699;28;20038;-86
2021/12/02 04:50:49;;;;;;;54.58;30.95;;;1.30;99.90;;;;;;5000053;28;20046;-84
2021/12/02 04:53:18;;;;;;;49.63;30.88;;;1.30;99.90;;;;;;5000307;28;20382;-85
2021/12/02 04:55:46;;;;;;;49.72;31.00;;;1.30;99.90;;;;;;5000794;28;20478;-84
2021/12/02 04:58:14;;;;;;;54.30;31.73;;;1.30;99.90;;;;;;5016089;28;20077;-82
2021/12/02 05:00:41;;;;;;;49.72;29.13;;;1.00;99.90;;;;;;5016999;28;20446;-85
2021/12/02 05:03:09;;;;;;;46.17;28.95;;;1.00;99.90;;;;;;4997350;28;20093;-85
2021/12/02 05:05:37;;;;;;;42.83;28.58;;;1.00;99.90;;;;;;5013407;28;20485;-84
2021/12/02 05:08:05;;;;;;;49.15;29.23;;;1.00;99.90;;;;;;4997899;28;20046;-88
2021/12/02 05:10:45;;;;;;;44.35;28.08;;;1.20;99.90;;;;;;5015466;28;20045;-87
2021/12/02 05:13:16;;;;;;;46.30;27.63;;;1.20;99.90;;;;;;4998979;28;20502;-90
2021/12/02 05:15:47;;;;;;;47.25;29.60;;;1.10;99.90;;;;;;4998027;28;20050;-89
2021/12/02 05:18:14;;;;;;;42.17;27.15;;;1.00;99.90;;;;;;4999350;28;20042;-85
2021/12/02 05:20:42;;;;;;;46.35;28.10;;;1.20;99.90;;;;;;5001379;28;20421;-85
2021/12/02 05:23:17;;;;;;;42.10;26.67;;;1.40;99.90;;;;;;4999723;28;20131;-92
2021/12/02 05:25:46;;;;;;;47.33;28.60;;;1.30;99.90;;;;;;5010501;28;20046;-86
2021/12/02 05:28:17;;;;;;;44.63;27.92;;;1.00;99.90;;;;;;4994992;28;20069;-87
2021/12/02 05:30:46;;;;;;;46.35;27.63;;;0.40;99.90;;;;;;4979908;28;20054;-86
2021/12/02 05:33:15;;;;;;;48.05;28.92;;;0.20;99.90;;;;;;4976336;28;20057;-87
2021/12/02 05:35:44;;;;;;;43.38;26.20;;;0.30;99.90;;;;;;4993305;28;20140;-81
2021/12/02 05:38:13;;;;;;;43.50;27.05;;;0.40;99.90;;;;;;4991802;28;20053;-84
2021/12/02 05:40:40;;;;;;;42.30;26.98;;;0.90;99.90;;;;;;4992473;28;20058;-81
2021/12/02 05:46:00;;;;;;;47.90;26.65;;;1.40;99.90;;;;;;4993107;28;20109;-85
2021/12/02 05:48:28;;;;;;;44.78;27.58;;;1.50;99.90;;;;;;4993301;28;20049;-84
2021/12/02 05:50:55;;;;;;;69.57;36.90;;;1.60;99.90;;;;;;4993089;28;20038;-83
2021/12/02 05:53:22;;;;;;;99.63;52.03;;;1.70;99.90;;;;;;4992772;28;20104;-81
2021/12/02 05:55:51;;;;;;;46.15;29.23;;;1.90;99.90;;;;;;4992999;28;20038;-83
2021/12/02 05:58:18;;;;;;;34.95;21.75;;;1.70;99.90;;;;;;5007573;28;20042;-82
2021/12/02 06:00:53;;;;;;;38.33;23.42;;;0.60;99.90;;;;;;4992393;28;20105;-87
2021/12/02 06:03:21;;;;;;;39.55;21.30;;;0.50;99.90;;;;;;4976399;28;20550;-85
2021/12/02 06:05:52;;;;;;;92.32;47.83;;;0.70;99.90;;;;;;5020812;28;20048;-86
2021/12/02 06:08:19;;;;;;;49.42;28.33;;;0.90;99.90;;;;;;5031782;28;20135;-83
2021/12/02 06:10:54;;;;;;;34.38;21.55;;;1.30;99.90;;;;;;5014622;28;20136;-87
2021/12/02 06:13:33;;;;;;;36.78;20.83;;;1.10;99.90;;;;;;5030861;28;20095;-85
2021/12/02 06:16:01;;;;;;;29.65;19.48;;;1.00;99.90;;;;;;5013824;28;20144;-82
2021/12/02 06:18:37;;;;;;;28.67;19.63;;;1.10;99.90;;;;;;5013905;28;20412;-87
2021/12/02 06:21:08;;;;;;;29.55;19.42;;;1.20;99.90;;;;;;5014319;28;20049;-88
2021/12/02 06:23:36;;;;;;;34.45;20.35;;;1.20;99.90;;;;;;5015899;28;20045;-91
2021/12/02 06:26:56;;;;;;;38.63;20.95;;;1.60;99.90;;;;;;4978427;28;20168;-88
2021/12/02 06:29:24;;;;;;;34.22;21.45;;;1.90;99.90;;;;;;4994316;28;20101;-85
2021/12/02 06:32:14;;;;;;;33.65;20.50;;;1.90;99.90;;;;;;5008838;28;20058;-86
2021/12/02 06:34:48;;;;;;;34.28;21.95;;;2.00;99.90;;;;;;5000578;28;20054;-89
2021/12/02 06:37:16;;;;;;;44.72;27.60;;;2.20;99.90;;;;;;4995369;28;20046;-92
2021/12/02 06:39:43;;;;;;;65.90;36.35;;;2.00;99.90;;;;;;5018279;28;20128;-85
2021/12/02 06:42:18;;;;;;;142.25;70.35;;;1.80;99.90;;;;;;5015711;28;20033;-75
2021/12/02 06:44:45;;;;;;;77.43;41.15;;;2.60;99.90;;;;;;5011265;28;20524;-89
2021/12/02 06:47:39;;;;;;;67.25;40.33;;;2.10;99.90;;;;;;4995704;28;20448;-82
2021/12/02 06:50:18;;;;;;;70.38;40.05;;;1.60;99.90;;;;;;5011510;28;20197;-81
2021/12/02 06:52:50;;;;;;;59.58;36.60;;;1.60;99.90;;;;;;4994947;28;20397;-87
2021/12/02 06:55:51;;;;;;;56.35;33.20;;;1.40;99.90;;;;;;4972400;28;20063;-87
2021/12/02 06:58:23;;;;;;;50.13;33.22;;;1.50;99.90;;;;;;4997891;28;20046;-83
2021/12/02 07:03:51;;;;;;;52.30;32.05;;;1.90;99.90;;;;;;5054948;23;20432;-86
2021/12/02 07:06:47;;;;;;;42.22;29.52;;;2.00;99.90;;;;;;5005129;28;20073;-92
2021/12/02 07:09:15;;;;;;;43.35;25.00;;;2.20;99.90;;;;;;5032455;28;20060;-90
2021/12/02 07:11:52;;;;;;;40.00;22.30;;;2.30;99.90;;;;;;5019187;28;20049;-89
2021/12/02 07:14:24;;;;;;;36.35;22.13;;;2.30;99.90;;;;;;5019291;28;20050;-90
2021/12/02 07:16:52;;;;;;;36.83;22.13;;;2.50;99.90;;;;;;5003180;28;20041;-91
2021/12/02 07:19:20;;;;;;;39.70;23.38;;;2.60;99.90;;;;;;5001454;28;20049;-90
2021/12/02 07:21:47;;;;;;;38.45;24.55;;;2.70;99.90;;;;;;5001630;28;20065;-91
2021/12/02 07:24:18;;;;;;;34.42;23.75;;;2.90;99.90;;;;;;5004623;28;20120;-90
2021/12/02 07:27:29;;;;;;;38.33;23.38;;;3.10;99.90;;;;;;5034483;28;20050;-91
2021/12/02 07:29:56;;;;;;;32.60;23.38;;;2.80;99.90;;;;;;5035147;28;20052;-91
2021/12/02 07:32:45;;;;;;;39.35;24.80;;;3.20;99.90;;;;;;5020129;28;20528;-90
2021/12/02 07:35:23;;;;;;;39.10;26.58;;;3.40;99.90;;;;;;5019490;28;20050;-91
2021/12/02 07:37:53;;;;;;;38.10;25.02;;;3.80;99.90;;;;;;5011992;28;20069;-90
2021/12/02 07:40:26;;;;;;;38.97;25.02;;;4.00;99.90;;;;;;5021096;28;20050;-92
2021/12/02 07:43:07;;;;;;;41.13;26.95;;;4.50;99.90;;;;;;4962584;28;20058;-90
2021/12/02 07:45:48;;;;;;;42.72;26.08;;;4.60;99.90;;;;;;4984412;28;20150;-92
2021/12/02 08:02:00;;;;;;;41.70;26.08;;;5.40;99.90;;;;;;4990223;28;20529;-91
2021/12/02 08:04:55;;;;;;;44.50;28.58;;;5.70;99.90;;;;;;4980328;28;20498;-93
2021/12/02 08:07:23;;;;;;;38.85;26.60;;;6.20;99.90;;;;;;4979420;28;20153;-90
2021/12/02 08:09:51;;;;;;;43.78;27.77;;;6.00;99.90;;;;;;4995329;28;20413;-90
2021/12/02 08:12:48;;;;;;;38.58;25.95;;;5.90;99.90;;;;;;4995278;28;20050;-94
2021/12/02 08:15:27;;;;;;;44.35;28.05;;;5.70;99.90;;;;;;4994863;28;20047;-89
2021/12/02 08:18:18;;;;;;;38.00;26.92;;;5.10;99.90;;;;;;4978720;28;20050;-93
2021/12/02 08:20:53;;;;;;;43.17;27.10;;;5.50;99.90;;;;;;4957736;28;20046;-91
2021/12/02 08:23:21;;;;;;;50.50;28.70;;;5.50;99.90;;;;;;5031177;28;20127;-91
2021/12/02 08:26:21;;;;;;;41.90;27.80;;;6.10;99.90;;;;;;5003138;28;20131;-90
2021/12/02 08:28:48;;;;;;;42.85;29.35;;;6.10;99.90;;;;;;5000046;28;20053;-90
2021/12/02 08:31:16;;;;;;;49.90;29.33;;;6.00;99.90;;;;;;5000178;28;20100;-92
2021/12/02 08:34:40;;;;;;;44.33;28.40;;;6.10;99.90;;;;;;5000240;28;20056;-92
2021/12/02 08:37:10;;;;;;;44.20;28.67;;;6.20;99.90;;;;;;4982094;28;20096;-93
2021/12/02 08:39:41;;;;;;;44.70;30.15;;;6.10;99.90;;;;;;4996450;28;20054;-92
2021/12/02 08:42:09;;;;;;;48.63;29.42;;;5.80;99.90;;;;;;4995631;28;20050;-93
2021/12/02 08:44:43;;;;;;;40.47;29.08;;;6.20;99.90;;;;;;4996163;28;20050;-92
2021/12/02 08:47:12;;;;;;;43.78;28.83;;;6.70;99.90;;;;;;5013108;28;20100;-94
2021/12/02 08:49:39;;;;;;;44.05;27.65;;;6.50;99.90;;;;;;4994924;23;20056;-92
2021/12/02 08:54:49;;;;;;;47.10;32.55;;;7.10;99.90;;;;;;5055419;28;20191;-93
2021/12/02 08:57:54;;;;;;;50.20;33.67;;;6.70;99.90;;;;;;5078390;28;20174;-91
2021/12/02 09:00:35;;;;;;;52.75;33.53;;;6.50;99.90;;;;;;5060503;28;20076;-94
2021/12/02 09:03:22;;;;;;;53.17;33.80;;;6.60;99.90;;;;;;5077892;28;20409;-93
2021/12/02 09:05:51;;;;;;;50.03;34.38;;;7.10;99.90;;;;;;5062159;28;20071;-92
2021/12/02 09:08:23;;;;;;;47.13;33.53;;;7.10;99.90;;;;;;5058264;28;20037;-94
2021/12/02 09:11:29;;;;;;;;;;;7.00;99.90;;;;;;5056690;28;20052;-91
2021/12/02 09:14:25;;;;;;;43.08;30.45;;;7.10;99.90;;;;;;5054697;28;19927;-94
2021/12/02 09:19:56;;;;;;;45.75;31.83;;;8.30;99.90;;;;;;4991833;28;20074;-91
2021/12/02 09:22:48;;;;;;;43.40;31.90;;;8.40;99.90;;;;;;4992079;28;20047;-93
2021/12/02 09:25:20;;;;;;;43.42;31.45;;;7.80;99.90;;;;;;4977092;28;20102;-94
2021/12/02 09:27:47;;;;;;;47.90;29.08;;;8.10;99.90;;;;;;4980514;28;20402;-91
2021/12/02 09:30:28;;;;;;;42.20;27.65;;;7.50;99.90;;;;;;4981742;28;20046;-93
2021/12/02 09:37:27;;;;;;;42.33;27.83;;;7.00;99.90;;;;;;5001186;28;20239;-93
2021/12/02 09:39:55;;;;;;;38.95;27.58;;;7.00;99.90;;;;;;4979734;28;20078;-92
2021/12/02 09:42:47;;;;;;;43.25;28.77;;;7.30;99.90;;;;;;4975856;28;20413;-91
2021/12/02 09:49:16;;;;;;;39.10;27.50;;;7.50;99.90;;;;;;4987609;28;20052;-86
2021/12/02 09:52:03;;;;;;;48.70;28.92;;;7.80;99.90;;;;;;4968239;28;20059;-87
2021/12/02 10:02:56;;;;;;;43.90;28.17;;;8.90;99.90;;;;;;4973717;28;20120;-83
2021/12/02 10:05:38;;;;;;;49.17;29.30;;;8.80;99.90;;;;;;4969644;28;20127;-82
2021/12/02 10:08:09;;;;;;;43.83;28.85;;;9.10;99.90;;;;;;4977992;28;20050;-83
2021/12/02 10:10:52;;;;;;;40.22;29.30;;;8.90;99.90;;;;;;4972973;28;20125;-84
2021/12/02 10:13:28;;;;;;;45.28;27.75;;;9.00;99.90;;;;;;4956086;28;20047;-83
2021/12/02 10:16:11;;;;;;;43.83;29.05;;;9.00;99.90;;;;;;4956959;28;20098;-84
2021/12/02 10:18:52;;;;;;;39.63;27.33;;;9.20;99.90;;;;;;4953095;28;20074;-84
2021/12/02 10:21:28;;;;;;;39.88;27.25;;;9.40;99.90;;;;;;4976567;28;20042;-91
2021/12/02 10:24:41;;;;;;;39.15;26.65;;;9.20;99.90;;;;;;4962868;28;20074;-91
2021/12/02 10:27:14;;;;;;;40.63;26.55;;;9.20;99.90;;;;;;4936172;29;20503;-91
2021/12/02 10:30:23;;;;;;;35.08;24.17;;;9.10;99.90;;;;;;4939398;29;20047;-93
2021/12/02 10:33:09;;;;;;;31.45;22.27;;;9.00;99.80;;;;;;4941909;29;20048;-91
2021/12/02 10:36:46;;;;;;;31.73;22.33;;;8.50;99.90;;;;;;4923310;29;20064;-94
2021/12/02 10:39:30;;;;;;;;;;;9.20;99.90;;;;;;4939170;29;20072;-94
2021/12/02 10:42:23;;;;;;;33.03;23.70;;;9.20;99.70;;;;;;4931901;29;19933;-92
2021/12/02 10:45:37;;;;;;;37.40;23.88;;;8.60;99.90;;;;;;4928937;29;20048;-90
2021/12/02 10:48:19;;;;;;;41.10;23.83;;;8.80;99.90;;;;;;4938400;29;20388;-86
2021/12/02 10:50:52;;;;;;;42.92;24.60;;;9.00;99.90;;;;;;4936742;29;20048;-89
2021/12/02 10:53:19;;;;;;;33.80;24.67;;;9.00;99.90;;;;;;4935669;29;20201;-90
2021/12/02 10:55:57;;;;;;;38.85;27.60;;;9.00;99.90;;;;;;4920422;29;20044;-88
2021/12/02 10:58:31;;;;;;;39.13;25.63;;;9.30;99.90;;;;;;4920151;29;20052;-89
2021/12/02 11:01:06;;;;;;;37.00;25.20;;;9.40;99.80;;;;;;4934815;29;20058;-87
2021/12/02 11:03:34;;;;;;;37.55;24.50;;;9.20;99.90;;;;;;4934989;29;20047;-85
2021/12/02 11:06:01;;;;;;;38.40;24.40;;;9.40;99.90;;;;;;4935158;29;20052;-86
2021/12/02 11:08:34;;;;;;;42.25;26.83;;;9.40;99.90;;;;;;4937632;29;20049;-86
2021/12/02 11:11:02;;;;;;;42.28;24.98;;;9.30;99.90;;;;;;4951137;29;20461;-90
2021/12/02 11:13:29;;;;;;;44.78;26.13;;;9.00;99.90;;;;;;4937705;29;20059;-83
2021/12/02 11:15:59;;;;;;;39.45;25.08;;;8.90;99.90;;;;;;4937861;29;20052;-90
2021/12/02 11:18:28;;;;;;;41.78;25.67;;;9.30;99.90;;;;;;4936219;29;20055;-91
2021/12/02 11:20:58;;;;;;;39.55;26.10;;;9.50;99.90;;;;;;4938933;29;20043;-87
2021/12/02 11:23:47;;;;;;;41.25;26.60;;;8.40;99.90;;;;;;4908472;29;20044;-89
2021/12/02 11:26:17;;;;;;;36.42;25.08;;;8.30;99.90;;;;;;4952243;29;20038;-87
2021/12/02 11:28:47;;;;;;;39.47;27.05;;;8.10;99.90;;;;;;4954198;29;20090;-85
2021/12/02 11:31:17;;;;;;;40.47;25.38;;;8.20;99.90;;;;;;4954967;29;20047;-85
2021/12/02 11:33:55;;;;;;;38.15;25.15;;;8.10;99.90;;;;;;4955370;29;20118;-85
2021/12/02 11:36:25;;;;;;;38.13;26.20;;;8.20;99.90;;;;;;4937492;29;20110;-84
2021/12/02 11:38:59;;;;;;;37.58;26.50;;;8.70;99.90;;;;;;4954522;29;20090;-83
2021/12/02 11:41:30;;;;;;;35.33;25.55;;;9.00;99.90;;;;;;4954534;29;20140;-85
2021/12/02 11:43:58;;;;;;;38.28;24.90;;;9.30;99.90;;;;;;4936425;29;20082;-86
2021/12/02 11:52:29;;;;;;;36.85;26.05;;;10.10;99.90;;;;;;5109215;27;20380;-83
2021/12/02 11:57:27;;;;;;;32.03;23.13;;;12.00;97.20;;;;;;5129141;27;20309;-81
2021/12/02 12:03:31;;;;;;;34.78;23.40;;;12.80;93.70;;;;;;5105549;27;20393;-80
2021/12/02 12:06:00;;;;;;;37.85;23.45;;;11.60;97.40;;;;;;5107350;28;20428;-83
2021/12/02 12:08:36;;;;;;;35.45;23.75;;;11.60;95.10;;;;;;5106923;28;20104;-84
2021/12/02 12:11:25;;;;;;;42.78;25.05;;;10.60;96.10;;;;;;5104278;28;20051;-86
2021/12/02 12:14:12;;;;;;;34.70;25.52;;;11.30;96.00;;;;;;5102465;28;20123;-89
2021/12/02 12:16:47;;;;;;;44.80;26.30;;;12.10;94.00;;;;;;5076040;28;20391;-86
2021/12/02 12:21:37;;;;;;;49.25;27.15;;;12.60;92.90;;;;;;5129316;27;20444;-86
2021/12/02 12:24:08;;;;;;;38.65;25.83;;;10.60;96.90;;;;;;5126550;28;20051;-85
2021/12/02 12:26:44;;;;;;;46.30;27.73;;;11.00;96.30;;;;;;5111116;28;20047;-85
2021/12/02 12:29:14;;;;;;;44.08;25.88;;;11.60;95.10;;;;;;5106133;28;20048;-87
2021/12/02 12:32:00;;;;;;;39.05;25.30;;;10.90;95.70;;;;;;5128311;28;20035;-84
2021/12/02 12:38:42;;;;;;;40.63;23.70;;;9.70;99.50;;;;;;5110064;28;20027;-89
2021/12/02 12:41:26;;;;;;;36.50;22.70;;;9.70;99.80;;;;;;5109212;28;20043;-84
2021/12/02 12:44:02;;;;;;;37.92;23.05;;;9.70;99.60;;;;;;5128409;28;20110;-86
2021/12/02 12:46:34;;;;;;;40.60;22.48;;;9.90;99.20;;;;;;5111427;28;20058;-85
2021/12/02 12:49:32;;;;;;;32.72;23.58;;;9.60;99.80;;;;;;5065665;28;20074;-84
2021/12/02 12:52:53;;;;;;;;;;;;;;;;;;;;;
2021/12/02 13:00:04;;;;;;;37.35;23.20;;;10.40;98.40;;;;;;5484745;23;20097;-85
2021/12/02 13:04:54;;;;;;;34.20;24.20;;;11.40;94.50;;;;;;5118856;27;20387;-83
2021/12/02 13:08:25;;;;;;;37.45;24.75;;;10.50;95.30;;;;;;5047856;28;20095;-83
2021/12/02 13:10:59;;;;;;;32.63;23.58;;;10.00;98.20;;;;;;5048311;28;20060;-86
2021/12/02 13:13:53;;;;;;;34.13;24.80;;;9.60;99.30;;;;;;5033820;28;20057;-88
2021/12/02 13:44:54;;;;;;;41.65;25.80;;;10.10;98.50;;;;;;5048274;27;20393;-85
2021/12/02 13:47:41;;;;;;;35.97;24.38;;;12.70;79.20;;;;;;5049460;28;20815;-86
2021/12/02 13:52:41;;;;;;;33.60;22.58;;;11.10;89.50;;;;;;5110201;27;20761;-88
2021/12/02 13:55:16;;;;;;;39.83;23.02;;;10.50;92.30;;;;;;5092776;28;20047;-89
2021/12/02 13:58:05;;;;;;;33.50;22.98;;;9.60;95.80;;;;;;5108760;28;20043;-90
2021/12/02 14:00:36;;;;;;;34.17;22.95;;;9.20;98.50;;;;;;5107945;28;20035;-85
2021/12/02 14:03:12;;;;;;;29.23;22.25;;;9.70;98.90;;;;;;5109124;28;20124;-85
2021/12/02 14:05:56;;;;;;;41.08;24.83;;;9.10;99.90;;;;;;5108900;28;20043;-84
2021/12/02 14:20:10;;;;;;;41.53;24.57;;;9.90;99.90;;;;;;5963561;23;19944;-90
2021/12/02 14:26:55;;;;;;;34.00;22.80;;;9.90;99.90;;;;;;3395114;23;20335;-86
2021/12/02 14:30:35;;;;;;;40.55;23.30;;;9.70;99.90;;;;;;4981387;28;20046;-90
2021/12/02 14:46:20;;;;;;;36.67;22.37;;;8.60;99.90;;;;;;5589044;23;20044;-87
2021/12/02 14:49:05;;;;;;;34.20;22.08;;;8.60;99.90;;;;;;4958522;28;20046;-84
2021/12/02 14:51:44;;;;;;;37.28;22.20;;;9.00;99.90;;;;;;4978056;28;20049;-87
2021/12/02 14:54:13;;;;;;;30.83;20.70;;;9.30;99.90;;;;;;4955648;28;20054;-88
2021/12/02 14:56:44;;;;;;;38.72;23.15;;;8.70;99.90;;;;;;4956889;28;20050;-86
2021/12/02 14:59:16;;;;;;;33.65;21.55;;;8.70;99.90;;;;;;4972460;28;20066;-84
2021/12/02 15:02:06;;;;;;;35.92;22.10;;;8.90;99.90;;;;;;4954836;28;20047;-85
2021/12/02 15:04:50;;;;;;;32.03;19.52;;;8.80;99.90;;;;;;4942727;28;20392;-80
2021/12/02 15:07:45;;;;;;;36.42;19.90;;;8.40;99.90;;;;;;4974956;28;20068;-81
2021/12/02 15:10:34;;;;;;;29.00;19.45;;;8.70;99.90;;;;;;4953438;28;20070;-91
2021/12/02 15:13:17;;;;;;;30.92;18.38;;;8.70;99.90;;;;;;4961950;28;20050;-88
2021/12/02 15:32:28;;;;;;;27.52;17.48;;;8.40;99.90;;;;;;4971679;28;20074;-93
2021/12/02 16:27:45;;;;;;;43.40;26.88;;;8.30;99.90;;;;;;6043738;22;20056;-79
2021/12/02 16:30:15;;;;;;;39.83;25.63;;;8.20;99.90;;;;;;4926903;28;20101;-86
2021/12/02 16:33:33;;;;;;;69.10;38.78;;;8.20;99.90;;;;;;4975433;28;20053;-87
2021/12/02 16:36:20;;;;;;;93.35;53.63;;;8.20;99.90;;;;;;4957080;28;20168;-83
2021/12/02 16:39:46;;;;;;;99.68;56.78;;;8.30;99.90;;;;;;4958511;28;20069;-87
2021/12/02 16:51:29;;;;;;;;;;;;;;;;;;;;;
2021/12/02 17:01:13;;;;;;;54.35;34.20;;;7.80;99.90;;;;;;2940988;23;20066;-85
2021/12/02 17:04:11;;;;;;;75.80;34.50;;;7.70;99.90;;;;;;4947498;28;20094;-94
2021/12/02 17:07:03;;;;;;;63.15;35.55;;;7.70;99.90;;;;;;4958857;28;20138;-82
2021/12/02 17:09:39;;;;;;;71.72;39.22;;;7.50;99.90;;;;;;4959127;28;20042;-87
2021/12/02 17:20:36;;;;;;;54.92;34.30;;;7.90;99.90;;;;;;5029372;23;20058;-86
2021/12/02 17:26:59;;;;;;;52.05;31.25;;;7.60;99.90;;;;;;4952179;29;20043;-84
2021/12/02 17:29:33;;;;;;;50.47;31.27;;;7.40;99.90;;;;;;4921658;29;20043;-85
2021/12/02 17:32:24;;;;;;;56.67;32.95;;;7.20;99.90;;;;;;4914121;29;20134;-89
2021/12/02 17:35:08;;;;;;;61.53;33.22;;;7.30;99.90;;;;;;4901378;29;20445;-86
2021/12/02 17:37:43;;;;;;;69.00;34.95;;;7.40;99.90;;;;;;4914195;29;20051;-85
2021/12/02 17:44:10;;;;;;;64.70;41.72;;;7.10;99.90;;;;;;4935065;29;20097;-86
2021/12/02 17:47:54;;;;;;;78.03;43.58;;;6.80;99.90;;;;;;4920214;29;20106;-83
2021/12/02 17:51:52;;;;;;;;;;;;;;;;;;;;;
2021/12/02 17:56:01;;;;;;;66.40;41.03;;;7.10;99.90;;;;;;4859004;29;20684;-84
2021/12/02 17:58:28;;;;;;;74.50;46.05;;;6.90;99.90;;;;;;4871032;29;20064;-82
2021/12/02 18:00:56;;;;;;;82.05;45.28;;;7.10;99.90;;;;;;4878131;29;20055;-83
2021/12/02 18:03:35;;;;;;;81.68;47.90;;;6.90;99.90;;;;;;4862581;29;20049;-82
2021/12/02 18:06:17;;;;;;;72.00;42.13;;;6.90;99.90;;;;;;4875174;29;20176;-85